Meteo Giornale » Osservazioni meteo Stati Uniti (USA) » Amarillo
ore: 11:53 - Osservazioni Meteo Amarillo
Lat. 35° 13' N Lon. 101° 43' W Alt. 1099 metri s.l.m.
32 °C
Sereno
Temp. 24 Ore
21 °C
37 °C
Sud/Sud-Ovest
20.3 Km/h
Dew point 15 °C
Umidità 35 %
Visibilità 10 Km
Il sole sorge alle ore 07:18
Il sole tramonta alle ore 20:15
| Data e Ora | Cielo e Fenomeni | T °C | DP °C | Um. % | Pres. hPa | Vis. km | Vento km/h | |
|---|---|---|---|---|---|---|---|---|
| Oggi h: 11:53 | Sereno | 32 | 15 | 35 | 1020 | 10 | S/SO 20.3 | |
| Oggi h: 10:53 | Sereno | 30 | 15 | 40 | 1020 | 10 | S/SO 27.8 | |
| Oggi h: 09:53 | Sereno | 27 | 14 | 44 | 1020 | 10 | S/SO 20.3 | |
| Oggi h: 08:53 | Sereno | 24 | 13 | 50 | 1020 | 10 | S 7.4 | |
| Oggi h: 07:53 | Sereno | 21 | 13 | 60 | 1019 | 10 | N 5.5 | |
| Oggi h: 06:53 | Sereno | 21 | 13 | 60 | 1017 | 10 | S/SO 13 | |
| Oggi h: 05:53 | Sereno | 21 | 12 | 56 | 1017 | 10 | S/SO 7.4 | |
| Oggi h: 04:53 | Sereno | 23 | 12 | 49 | 1017 | 10 | S 22.2 | |
| Oggi h: 03:53 | Sereno | 22 | 12 | 53 | 1017 | 10 | S/SO 14.8 | |
| Oggi h: 02:53 | Sereno | 25 | 11 | 41 | 1017 | 10 | S 29.6 | |
| Oggi h: 01:53 | Sereno | 26 | 11 | 39 | 1017 | 10 | S 25.9 | |
| Oggi h: 00:53 | Sereno | 27 | 11 | 36 | 1017 | 10 | S 24 | |
| Ieri h: 23:53 | Sereno | 27 | 11 | 36 | 1016 | 10 | S 18.5 | |
| Ieri h: 22:53 | Sereno | 29 | 11 | 32 | 1016 | 10 | S 25.9 | |
| Ieri h: 21:53 | Sereno | 30 | 11 | 30 | 1015 | 10 | S/SE 24 | |
| Ieri h: 20:53 | Sereno | 32 | 11 | 27 | 1015 | 10 | S 24 | |
| Ieri h: 19:53 | Sereno | 34 | 11 | 24 | 1014 | 10 | S/SE 31.5 | |
| Ieri h: 18:53 | Sereno | 36 | 11 | 22 | 1014 | 10 | S 37 | |
| Ieri h: 17:53 | Sereno | 37 | 11 | 20 | 1014 | 10 | S 35.2 | |
| Ieri h: 16:53 | Sereno | 37 | 10 | 19 | 1015 | 10 | S 29.6 | |
| Ieri h: 15:53 | Sereno | 37 | 11 | 20 | 1015 | 10 | S 31.5 | |
| Ieri h: 14:53 | Sereno | 37 | 11 | 20 | 1016 | 10 | S/SO 25.9 | |
| Ieri h: 13:53 | Sereno | 37 | 11 | 20 | 1017 | 10 | S 31.5 | |
| Ieri h: 12:53 | Sereno | 35 | 13 | 26 | 1017 | 10 | S/SO 37 | |



